createdAt,value
2023-04-25T00:02:13.142Z,11.80
2023-04-25T00:05:39.387Z,11.78
2023-04-25T00:08:14.817Z,11.74
2023-04-25T00:10:58.157Z,11.74
2023-04-25T00:13:57.952Z,11.76
2023-04-25T00:16:57.651Z,11.77
2023-04-25T00:19:59.700Z,11.78
2023-04-25T00:22:40.670Z,11.78
2023-04-25T00:25:17.097Z,11.77
2023-04-25T00:27:55.864Z,11.77
2023-04-25T00:30:36.019Z,11.79
2023-04-25T00:33:20.337Z,11.80
2023-04-25T00:36:21.174Z,11.79
2023-04-25T00:39:04.493Z,11.76
2023-04-25T00:41:43.232Z,11.72
2023-04-25T00:44:24.378Z,11.71
2023-04-25T00:47:21.282Z,11.71
2023-04-25T00:49:51.014Z,11.71
2023-04-25T00:53:27.644Z,11.71
2023-04-25T00:56:14.864Z,11.69
2023-04-25T00:58:58.727Z,11.61
2023-04-25T01:01:39.070Z,11.56
2023-04-25T01:04:15.184Z,11.49
2023-04-25T01:07:10.295Z,11.54
2023-04-25T01:09:55.106Z,11.50
2023-04-25T01:12:57.923Z,11.41
2023-04-25T01:15:37.224Z,11.33
2023-04-25T01:18:09.625Z,11.28
2023-04-25T01:20:49.447Z,11.26
2023-04-25T01:23:32.877Z,11.28
2023-04-25T01:26:07.190Z,11.31
2023-04-25T01:29:09.290Z,11.33
2023-04-25T01:32:00.527Z,11.34
2023-04-25T01:34:45.140Z,11.32
2023-04-25T01:37:42.058Z,11.27
2023-04-25T01:40:19.106Z,11.24
2023-04-25T01:42:55.477Z,11.22
2023-04-25T01:45:41.947Z,11.22
2023-04-25T01:48:19.386Z,11.19
2023-04-25T01:51:01.392Z,11.15
2023-04-25T01:54:06.040Z,11.13
2023-04-25T01:56:48.986Z,11.13
2023-04-25T01:59:40.292Z,11.15
2023-04-25T02:02:55.461Z,11.19
2023-04-25T02:05:48.569Z,11.16
2023-04-25T02:08:47.972Z,11.14
2023-04-25T02:11:26.817Z,11.13
2023-04-25T02:14:49.342Z,11.12
2023-04-25T02:18:08.013Z,11.13
2023-04-25T02:20:58.425Z,11.12
2023-04-25T02:23:36.636Z,11.13
2023-04-25T02:29:50.594Z,11.10
2023-04-25T02:32:34.017Z,11.06
2023-04-25T02:35:13.935Z,11.02
2023-04-25T02:37:59.990Z,11.01
2023-04-25T02:40:39.505Z,11.00
2023-04-25T02:43:18.777Z,10.98
2023-04-25T02:45:57.903Z,10.96
2023-04-25T02:48:32.936Z,10.93
2023-04-25T02:51:30.417Z,10.92
2023-04-25T02:54:21.480Z,10.91
2023-04-25T02:57:22.671Z,10.91
2023-04-25T02:59:57.781Z,10.90
2023-04-25T03:02:49.210Z,10.90
2023-04-25T03:05:46.837Z,10.94
2023-04-25T03:09:30.439Z,10.96
2023-04-25T03:15:08.742Z,10.95
2023-04-25T03:17:47.338Z,10.93
2023-04-25T03:20:23.938Z,10.88
2023-04-25T03:23:29.341Z,10.91
2023-04-25T03:26:29.061Z,10.96
2023-04-25T03:30:16.173Z,10.98
2023-04-25T03:33:05.178Z,11.01
2023-04-25T03:35:45.545Z,11.01
2023-04-25T03:38:28.517Z,11.02
2023-04-25T03:41:00.111Z,11.04
2023-04-25T03:43:59.178Z,11.08
2023-04-25T03:46:55.309Z,11.14
2023-04-25T03:49:36.301Z,11.20
2023-04-25T03:52:09.067Z,11.24
2023-04-25T03:54:48.915Z,11.30
2023-04-25T03:57:29.522Z,11.36
2023-04-25T04:00:04.823Z,11.39
2023-04-25T04:03:35.140Z,11.46
2023-04-25T04:06:11.862Z,11.54
2023-04-25T04:09:23.054Z,11.59
2023-04-25T04:21:03.821Z,11.90
2023-04-25T04:24:55.574Z,11.93
2023-04-25T04:29:22.348Z,12.01
2023-04-25T04:40:57.045Z,12.26
2023-04-25T04:48:51.166Z,12.55
2023-04-25T04:55:19.543Z,12.88
2023-04-25T04:59:07.002Z,12.99
2023-04-25T05:03:11.092Z,13.11
2023-04-25T05:34:56.862Z,13.89
2023-04-25T05:38:04.081Z,13.97
2023-04-25T05:41:40.304Z,14.11
2023-04-25T05:45:44.691Z,14.26
2023-04-25T05:49:20.658Z,14.35
2023-04-25T05:52:51.698Z,14.46
2023-04-25T05:56:37.286Z,14.58
2023-04-25T06:04:06.883Z,14.94
2023-04-25T06:07:25.107Z,15.03
2023-04-25T06:10:11.195Z,15.13
2023-04-25T06:18:21.875Z,15.42
2023-04-25T06:22:27.968Z,15.54
2023-04-25T06:38:33.208Z,15.88
2023-04-25T06:41:36.933Z,15.92
2023-04-25T06:44:24.495Z,16.04
2023-04-25T06:47:14.916Z,16.10
2023-04-25T06:59:23.016Z,16.39
2023-04-25T07:02:13.329Z,16.44
2023-04-25T07:09:57.203Z,16.50
2023-04-25T07:12:35.010Z,16.53
2023-04-25T07:15:24.450Z,16.56
2023-04-25T07:18:32.225Z,16.62
2023-04-25T07:26:06.926Z,16.75
2023-04-25T07:29:27.863Z,16.83
2023-04-25T07:32:50.547Z,16.89
2023-04-25T07:35:38.757Z,16.96
2023-04-25T07:38:13.002Z,17.04
2023-04-25T07:41:00.785Z,17.13
2023-04-25T07:43:56.595Z,17.19
2023-04-25T07:46:52.284Z,17.24
2023-04-25T07:53:38.852Z,17.39
2023-04-25T07:56:53.656Z,17.46
2023-04-25T07:59:35.188Z,17.57
2023-04-25T08:02:37.802Z,17.63
2023-04-25T08:05:51.359Z,17.74
2023-04-25T08:09:03.946Z,17.79
2023-04-25T08:12:36.972Z,17.83
2023-04-25T08:15:34.824Z,17.87
2023-04-25T08:18:42.757Z,17.87
2023-04-25T08:26:01.613Z,18.19
2023-04-25T08:28:45.954Z,18.30
2023-04-25T08:32:05.194Z,18.41
2023-04-25T08:34:49.758Z,18.52
2023-04-25T08:37:32.626Z,18.55
2023-04-25T08:40:10.044Z,18.67
2023-04-25T08:43:14.128Z,18.66
2023-04-25T08:45:55.544Z,18.69
2023-04-25T08:48:37.699Z,18.75
2023-04-25T08:51:30.970Z,18.79
2023-04-25T08:54:35.608Z,18.86
2023-04-25T08:57:25.154Z,18.91
2023-04-25T09:04:23.361Z,18.95
2023-04-25T09:07:11.100Z,18.91
2023-04-25T09:10:20.606Z,18.99
2023-04-25T09:13:32.731Z,19.11
2023-04-25T09:17:05.794Z,19.05
2023-04-25T09:20:40.451Z,18.93
2023-04-25T09:23:25.624Z,18.88
2023-04-25T09:27:32.431Z,18.92
2023-04-25T09:30:21.568Z,19.09
2023-04-25T09:33:45.564Z,19.17
2023-04-25T10:00:52.739Z,19.37
2023-04-25T10:03:58.659Z,19.46
2023-04-25T10:12:53.035Z,19.73
2023-04-25T10:25:39.365Z,20.23
2023-04-25T10:28:59.058Z,20.09
2023-04-25T10:32:01.209Z,19.89
2023-04-25T10:34:58.702Z,19.73
2023-04-25T10:42:56.699Z,19.26
2023-04-25T10:59:27.073Z,19.13
2023-04-25T11:02:23.922Z,19.23
2023-04-25T11:05:58.280Z,19.37
2023-04-25T11:10:01.340Z,19.79
2023-04-25T11:22:24.398Z,20.25
2023-04-25T11:31:13.615Z,20.25
2023-04-25T11:34:33.330Z,20.39
2023-04-25T12:11:00.699Z,20.62
2023-04-25T12:18:25.129Z,20.80
2023-04-25T12:22:32.488Z,20.85
2023-04-25T12:31:02.972Z,20.96
2023-04-25T12:42:39.292Z,21.03
2023-04-25T13:06:43.746Z,21.13
2023-04-25T13:17:11.421Z,21.16
2023-04-25T13:20:31.042Z,21.12
2023-04-25T13:28:45.265Z,20.65
2023-04-25T13:31:55.566Z,20.53
2023-04-25T13:35:22.671Z,20.60
2023-04-25T13:38:01.288Z,20.70
2023-04-25T13:41:08.621Z,20.81
2023-04-25T13:43:53.542Z,20.89
2023-04-25T13:46:53.624Z,20.89
2023-04-25T13:49:38.383Z,20.85
2023-04-25T13:53:03.490Z,20.67
2023-04-25T13:55:53.686Z,20.35
2023-04-25T13:58:39.763Z,20.11
2023-04-25T14:02:10.160Z,19.90
2023-04-25T14:08:32.116Z,20.12
2023-04-25T14:11:28.253Z,20.49
2023-04-25T14:14:18.991Z,20.91
2023-04-25T14:17:16.648Z,21.30
2023-04-25T14:20:15.841Z,21.64
2023-04-25T14:23:07.146Z,21.91
2023-04-25T14:27:03.793Z,21.95
2023-04-25T14:30:28.690Z,21.90
2023-04-25T14:33:29.147Z,22.00
2023-04-25T14:36:29.535Z,22.17
2023-04-25T14:39:25.721Z,22.32
2023-04-25T14:42:25.824Z,22.45
2023-04-25T14:45:50.514Z,22.48
2023-04-25T14:48:54.777Z,22.51
2023-04-25T14:51:32.786Z,22.48
2023-04-25T14:55:01.949Z,22.31
2023-04-25T14:58:16.493Z,22.13
2023-04-25T15:01:32.454Z,22.11
2023-04-25T15:04:20.063Z,22.14
2023-04-25T15:07:45.573Z,22.23
2023-04-25T15:11:03.840Z,22.30
2023-04-25T15:13:54.109Z,22.21
2023-04-25T15:16:40.819Z,22.09
2023-04-25T15:20:01.059Z,21.99
2023-04-25T15:26:44.442Z,21.55
2023-04-25T15:29:41.176Z,21.42
2023-04-25T15:32:43.133Z,21.32
2023-04-25T15:36:10.899Z,21.21
2023-04-25T15:38:46.112Z,21.20
2023-04-25T15:42:17.799Z,21.17
2023-04-25T15:45:32.920Z,21.07
2023-04-25T15:48:42.249Z,20.97
2023-04-25T15:52:24.033Z,20.89
2023-04-25T15:56:06.193Z,20.78
2023-04-25T16:23:12.547Z,19.37
2023-04-25T16:39:22.055Z,18.88
2023-04-25T16:43:05.329Z,18.79
2023-04-25T16:46:50.391Z,18.67
2023-04-25T16:54:21.426Z,18.34
2023-04-25T16:57:05.188Z,18.22
2023-04-25T17:08:16.664Z,17.76
2023-04-25T17:11:12.237Z,17.65
2023-04-25T17:15:00.373Z,17.52
2023-04-25T17:18:24.539Z,17.38
2023-04-25T17:22:16.979Z,17.25
2023-04-25T17:40:54.078Z,16.68
2023-04-25T17:48:42.213Z,16.50
2023-04-25T17:56:43.752Z,16.44
2023-04-25T18:00:32.286Z,16.38
2023-04-25T18:04:32.579Z,16.33
2023-04-25T18:12:20.299Z,16.16
2023-04-25T18:15:11.960Z,16.08
2023-04-25T18:36:45.059Z,15.91
2023-04-25T18:41:10.762Z,15.89
2023-04-25T18:45:05.095Z,15.86
2023-04-25T18:48:55.179Z,15.82
2023-04-25T19:01:21.761Z,15.60
2023-04-25T19:04:06.747Z,15.53
2023-04-25T19:11:10.822Z,15.44
2023-04-25T19:19:44.966Z,15.22
2023-04-25T19:41:50.081Z,14.51
2023-04-25T19:49:52.686Z,14.42
2023-04-25T20:15:05.894Z,14.01
2023-04-25T20:37:33.217Z,13.64
2023-04-25T20:41:58.657Z,13.69
2023-04-25T20:59:31.831Z,13.36
2023-04-25T21:07:46.790Z,13.29
2023-04-25T21:11:32.428Z,13.26
2023-04-25T21:19:37.871Z,13.15
2023-04-25T21:27:44.021Z,13.03
2023-04-25T21:30:29.058Z,13.01
2023-04-25T21:33:29.363Z,12.97
2023-04-25T21:36:04.708Z,12.95
2023-04-25T21:43:09.740Z,12.89
2023-04-25T21:51:06.379Z,12.79
2023-04-25T21:54:40.484Z,12.76
2023-04-25T21:58:21.274Z,12.72
2023-04-25T22:01:24.880Z,12.66
2023-04-25T22:03:58.192Z,12.60
2023-04-25T22:06:37.898Z,12.57
2023-04-25T22:14:37.274Z,12.52
2023-04-25T22:17:14.781Z,12.47
2023-04-25T22:20:19.657Z,12.42
2023-04-25T22:23:49.791Z,12.38
2023-04-25T22:26:55.947Z,12.21
2023-04-25T22:29:31.701Z,12.27
2023-04-25T22:41:08.787Z,12.23
2023-04-25T22:43:50.268Z,12.19
2023-04-25T22:46:39.696Z,12.14
2023-04-25T22:49:20.469Z,12.11
2023-04-25T22:51:59.382Z,12.09
2023-04-25T22:55:12.616Z,12.09
2023-04-25T22:58:13.071Z,12.05
2023-04-25T23:01:18.255Z,12.02
2023-04-25T23:04:20.955Z,11.97
2023-04-25T23:07:09.674Z,11.86
2023-04-25T23:10:25.318Z,11.94
2023-04-25T23:13:18.829Z,11.93
2023-04-25T23:16:57.549Z,11.85
2023-04-25T23:20:12.150Z,12.03
2023-04-25T23:22:59.799Z,12.07
2023-04-25T23:25:51.267Z,12.14
2023-04-25T23:28:28.610Z,12.21
2023-04-25T23:31:15.785Z,12.22
2023-04-25T23:34:01.080Z,12.23
2023-04-25T23:36:41.777Z,12.27
2023-04-25T23:39:32.426Z,12.29
2023-04-25T23:42:52.753Z,12.30
2023-04-25T23:45:24.364Z,12.33
2023-04-25T23:48:22.342Z,12.34
2023-04-25T23:50:57.908Z,12.35
2023-04-25T23:53:42.134Z,12.35
2023-04-25T23:57:06.922Z,12.36
2023-04-25T23:59:46.547Z,12.38
